createdAt,value
2022-08-29T00:00:05.252Z,7
2022-08-29T00:00:57.018Z,7
2022-08-29T00:01:48.851Z,7
2022-08-29T00:02:40.686Z,7
2022-08-29T00:03:32.381Z,7
2022-08-29T00:04:24.222Z,7
2022-08-29T00:05:15.949Z,7
2022-08-29T00:06:07.709Z,6
2022-08-29T00:06:59.505Z,6
2022-08-29T00:07:51.298Z,6
2022-08-29T00:08:42.995Z,5
2022-08-29T00:09:34.839Z,7
2022-08-29T00:10:26.638Z,6
2022-08-29T00:11:18.386Z,5
2022-08-29T00:12:10.194Z,6
2022-08-29T00:13:01.952Z,6
2022-08-29T00:13:53.809Z,6
2022-08-29T00:14:45.513Z,7
2022-08-29T00:15:44.731Z,6
2022-08-29T00:16:29.152Z,5
2022-08-29T00:17:20.865Z,7
2022-08-29T00:18:12.806Z,7
2022-08-29T00:19:04.421Z,6
2022-08-29T00:19:56.202Z,5
2022-08-29T00:20:47.989Z,6
2022-08-29T00:21:39.759Z,5
2022-08-29T00:22:31.533Z,6
2022-08-29T00:23:23.233Z,6
2022-08-29T00:24:15.090Z,6
2022-08-29T00:25:06.853Z,6
2022-08-29T00:25:58.650Z,6
2022-08-29T00:26:50.409Z,6
2022-08-29T00:27:42.484Z,6
2022-08-29T00:28:33.959Z,5
2022-08-29T00:29:25.751Z,6
2022-08-29T00:30:17.527Z,5
2022-08-29T00:31:09.310Z,6
2022-08-29T00:32:01.160Z,6
2022-08-29T00:32:52.856Z,5
2022-08-29T00:33:44.619Z,5
2022-08-29T00:34:36.405Z,7
2022-08-29T00:35:28.170Z,7
2022-08-29T00:36:19.964Z,6
2022-08-29T00:37:11.699Z,7
2022-08-29T00:38:03.457Z,5
2022-08-29T00:38:55.262Z,6
2022-08-29T00:39:47.064Z,6
2022-08-29T00:40:38.974Z,6
2022-08-29T00:41:30.590Z,6
2022-08-29T00:42:22.347Z,6
2022-08-29T00:43:14.139Z,6
2022-08-29T00:44:05.914Z,6
2022-08-29T00:44:57.662Z,6
2022-08-29T00:45:49.494Z,5
2022-08-29T00:46:41.215Z,5
2022-08-29T00:47:32.976Z,6
2022-08-29T00:48:24.760Z,7
2022-08-29T00:49:16.479Z,7
2022-08-29T00:50:08.308Z,7
2022-08-29T00:51:00.081Z,7
2022-08-29T00:51:51.835Z,7
2022-08-29T00:52:43.602Z,7
2022-08-29T00:53:35.386Z,6
2022-08-29T00:54:27.140Z,7
2022-08-29T00:55:18.931Z,7
2022-08-29T00:56:10.689Z,6
2022-08-29T00:57:02.481Z,7
2022-08-29T00:57:54.224Z,6
2022-08-29T00:58:46.012Z,6
2022-08-29T00:59:37.770Z,7
2022-08-29T01:00:29.555Z,7
2022-08-29T01:01:21.350Z,6
2022-08-29T01:02:13.117Z,7
2022-08-29T01:03:04.830Z,7
2022-08-29T01:03:56.628Z,7
2022-08-29T01:04:48.388Z,5
2022-08-29T01:05:40.153Z,6
2022-08-29T01:06:31.967Z,6
2022-08-29T01:07:23.630Z,6
2022-08-29T01:08:15.677Z,5
2022-08-29T01:09:07.224Z,7
2022-08-29T01:09:59.005Z,7
2022-08-29T01:10:50.768Z,7
2022-08-29T01:11:42.517Z,7
2022-08-29T01:12:34.300Z,7
2022-08-29T01:13:26.060Z,6
2022-08-29T01:14:17.843Z,7
2022-08-29T01:15:09.581Z,8
2022-08-29T01:16:01.423Z,7
2022-08-29T01:16:53.162Z,7
2022-08-29T01:17:44.900Z,7
2022-08-29T01:18:36.664Z,7
2022-08-29T01:19:28.425Z,8
2022-08-29T01:20:20.173Z,7
2022-08-29T01:21:11.957Z,8
2022-08-29T01:22:03.630Z,9
2022-08-29T01:22:55.483Z,7
2022-08-29T01:23:47.234Z,7
2022-08-29T01:24:39.022Z,9
2022-08-29T01:25:30.755Z,7
2022-08-29T01:26:22.536Z,8
2022-08-29T01:27:14.300Z,7
2022-08-29T01:28:06.094Z,7
2022-08-29T01:28:57.816Z,7
2022-08-29T01:29:49.597Z,7
2022-08-29T01:30:41.259Z,7
2022-08-29T01:31:38.647Z,7
2022-08-29T01:32:24.933Z,8
2022-08-29T01:33:16.585Z,7
2022-08-29T01:34:08.394Z,7
2022-08-29T01:35:00.198Z,7
2022-08-29T01:35:51.938Z,7
2022-08-29T01:36:43.692Z,7
2022-08-29T01:37:35.468Z,8
2022-08-29T01:38:27.224Z,7
2022-08-29T01:39:18.981Z,7
2022-08-29T01:40:10.822Z,8
2022-08-29T01:41:02.507Z,9
2022-08-29T01:41:54.267Z,10
2022-08-29T01:42:46.023Z,10
2022-08-29T01:43:37.794Z,8
2022-08-29T01:44:29.535Z,7
2022-08-29T01:45:21.359Z,7
2022-08-29T01:46:13.129Z,8
2022-08-29T01:47:04.841Z,8
2022-08-29T01:47:56.573Z,9
2022-08-29T01:48:48.349Z,8
2022-08-29T01:49:40.838Z,7
2022-08-29T01:50:31.873Z,7
2022-08-29T01:51:23.556Z,7
2022-08-29T01:52:15.394Z,7
2022-08-29T01:53:07.155Z,7
2022-08-29T01:53:58.923Z,8
2022-08-29T01:54:50.693Z,8
2022-08-29T01:55:42.454Z,8
2022-08-29T01:56:34.203Z,7
2022-08-29T01:57:25.945Z,8
2022-08-29T01:58:17.693Z,8
2022-08-29T01:59:09.473Z,8
2022-08-29T02:00:01.211Z,9
2022-08-29T02:00:53.083Z,8
2022-08-29T02:01:44.809Z,8
2022-08-29T02:02:36.572Z,9
2022-08-29T02:03:28.264Z,9
2022-08-29T02:04:20.045Z,9
2022-08-29T02:05:11.761Z,8
2022-08-29T02:06:03.460Z,8
2022-08-29T02:06:55.295Z,7
2022-08-29T02:07:47.074Z,7
2022-08-29T02:08:38.797Z,9
2022-08-29T02:09:30.585Z,9
2022-08-29T02:10:22.300Z,9
2022-08-29T02:11:14.059Z,7
2022-08-29T02:12:05.823Z,7
2022-08-29T02:12:57.596Z,8
2022-08-29T02:13:49.322Z,8
2022-08-29T02:14:41.084Z,9
2022-08-29T02:15:32.849Z,8
2022-08-29T02:16:24.647Z,7
2022-08-29T02:17:16.330Z,8
2022-08-29T02:18:08.177Z,8
2022-08-29T02:18:59.849Z,8
2022-08-29T02:19:51.618Z,9
2022-08-29T02:20:43.359Z,10
2022-08-29T02:21:35.135Z,9
2022-08-29T02:22:26.889Z,10
2022-08-29T02:23:30.536Z,9
2022-08-29T02:24:24.536Z,10
2022-08-29T02:25:02.152Z,9
2022-08-29T02:25:53.884Z,11
2022-08-29T02:26:45.665Z,9
2022-08-29T02:27:37.411Z,9
2022-08-29T02:28:29.215Z,9
2022-08-29T02:29:20.921Z,9
2022-08-29T02:30:12.693Z,9
2022-08-29T02:31:04.527Z,9
2022-08-29T02:31:56.208Z,9
2022-08-29T02:32:47.941Z,9
2022-08-29T02:33:39.699Z,9
2022-08-29T02:34:31.447Z,10
2022-08-29T02:35:24.331Z,10
2022-08-29T02:36:14.954Z,9
2022-08-29T02:37:06.736Z,9
2022-08-29T02:37:58.455Z,8
2022-08-29T02:38:50.239Z,8
2022-08-29T02:39:41.965Z,9
2022-08-29T02:40:33.733Z,9
2022-08-29T02:41:25.468Z,8
2022-08-29T02:42:17.230Z,9
2022-08-29T02:43:08.950Z,11
2022-08-29T02:44:00.734Z,9
2022-08-29T02:44:52.459Z,8
2022-08-29T02:45:44.247Z,10
2022-08-29T02:46:36.190Z,9
2022-08-29T02:47:27.767Z,9
2022-08-29T02:48:19.499Z,8
2022-08-29T02:49:11.181Z,9
2022-08-29T02:50:02.978Z,9
2022-08-29T02:50:54.798Z,9
2022-08-29T02:51:46.559Z,8
2022-08-29T02:52:38.354Z,9
2022-08-29T02:53:30.109Z,9
2022-08-29T02:54:21.910Z,8
2022-08-29T02:55:13.673Z,7
2022-08-29T02:56:05.471Z,8
2022-08-29T02:56:57.151Z,8
2022-08-29T02:57:49.038Z,9
2022-08-29T02:58:40.841Z,7
2022-08-29T02:59:32.616Z,7
2022-08-29T03:00:24.565Z,7
2022-08-29T03:01:16.246Z,7
2022-08-29T03:02:08.012Z,7
2022-08-29T03:02:59.776Z,7
2022-08-29T03:03:51.602Z,7
2022-08-29T03:04:43.285Z,7
2022-08-29T03:05:35.150Z,8
2022-08-29T03:06:26.974Z,7
2022-08-29T03:07:18.745Z,7
2022-08-29T03:08:10.569Z,7
2022-08-29T03:09:02.371Z,7
2022-08-29T03:09:54.154Z,7
2022-08-29T03:10:45.955Z,7
2022-08-29T03:11:37.764Z,8
2022-08-29T03:12:29.541Z,7
2022-08-29T03:13:21.355Z,7
2022-08-29T03:14:13.127Z,7
2022-08-29T03:15:04.979Z,8
2022-08-29T03:15:56.813Z,7
2022-08-29T03:16:48.571Z,8
2022-08-29T03:17:40.353Z,8
2022-08-29T03:18:32.178Z,9
2022-08-29T03:19:23.940Z,8
2022-08-29T03:20:15.789Z,8
2022-08-29T03:21:07.585Z,7
2022-08-29T03:21:59.390Z,8
2022-08-29T03:22:51.193Z,8
2022-08-29T03:23:43.005Z,8
2022-08-29T03:24:34.796Z,8
2022-08-29T03:25:26.613Z,7
2022-08-29T03:26:18.409Z,7
2022-08-29T03:27:10.237Z,7
2022-08-29T03:28:02.039Z,9
2022-08-29T03:28:53.771Z,7
2022-08-29T03:29:45.634Z,7
2022-08-29T03:30:37.461Z,8
2022-08-29T03:31:29.291Z,7
2022-08-29T03:32:21.085Z,7
2022-08-29T03:33:12.870Z,7
2022-08-29T03:34:04.728Z,7
2022-08-29T03:34:56.528Z,7
2022-08-29T03:35:48.304Z,7
2022-08-29T03:36:40.109Z,9
2022-08-29T03:37:31.918Z,9
2022-08-29T03:38:23.654Z,8
2022-08-29T03:39:15.530Z,8
2022-08-29T03:40:07.382Z,7
2022-08-29T03:40:59.145Z,7
2022-08-29T03:41:50.943Z,10
2022-08-29T03:42:42.770Z,8
2022-08-29T03:43:34.579Z,8
2022-08-29T03:44:26.392Z,8
2022-08-29T03:45:18.176Z,9
2022-08-29T03:46:10.031Z,9
2022-08-29T03:47:01.819Z,9
2022-08-29T03:47:53.604Z,8
2022-08-29T03:48:45.406Z,8
2022-08-29T03:49:37.221Z,9
2022-08-29T03:50:29.036Z,7
2022-08-29T03:51:20.850Z,7
2022-08-29T03:52:12.640Z,7
2022-08-29T03:53:04.473Z,8
2022-08-29T03:53:56.272Z,8
2022-08-29T03:54:48.096Z,7
2022-08-29T03:55:39.888Z,8
2022-08-29T03:56:31.717Z,9
2022-08-29T03:57:23.420Z,9
2022-08-29T03:58:15.686Z,7
2022-08-29T03:59:07.169Z,7
2022-08-29T03:59:58.964Z,9
2022-08-29T04:00:50.765Z,8
2022-08-29T04:01:42.668Z,9
2022-08-29T04:02:34.418Z,8
2022-08-29T04:03:26.565Z,10
2022-08-29T04:04:18.005Z,8
2022-08-29T04:05:09.891Z,8
2022-08-29T04:06:01.639Z,8
2022-08-29T04:06:53.378Z,10
2022-08-29T04:07:45.245Z,9
2022-08-29T04:08:37.083Z,9
2022-08-29T04:09:28.880Z,8
2022-08-29T04:10:20.704Z,8
2022-08-29T04:11:12.490Z,9
2022-08-29T04:12:04.333Z,8
2022-08-29T04:12:56.124Z,8
2022-08-29T04:13:47.936Z,8
2022-08-29T04:14:39.745Z,8
2022-08-29T04:15:31.563Z,8
2022-08-29T04:16:23.492Z,7
2022-08-29T04:17:15.185Z,7
2022-08-29T04:18:07.074Z,7
2022-08-29T04:18:58.816Z,7
2022-08-29T04:19:50.633Z,10
2022-08-29T04:20:42.464Z,10
2022-08-29T04:21:34.195Z,9
2022-08-29T04:22:26.078Z,10
2022-08-29T04:23:17.890Z,9
2022-08-29T04:24:09.734Z,10
2022-08-29T04:25:01.505Z,9
2022-08-29T04:26:02.974Z,10
2022-08-29T04:26:45.135Z,10
2022-08-29T04:27:36.966Z,10
2022-08-29T04:28:28.760Z,9
2022-08-29T04:29:20.574Z,10
2022-08-29T04:30:12.372Z,10
2022-08-29T04:31:04.166Z,9
2022-08-29T04:31:55.986Z,10
2022-08-29T04:32:47.806Z,10
2022-08-29T04:33:39.635Z,10
2022-08-29T04:34:31.403Z,10
2022-08-29T04:35:23.194Z,11
2022-08-29T04:36:15.172Z,11
2022-08-29T04:37:06.802Z,11
2022-08-29T04:37:58.610Z,10
2022-08-29T04:38:50.389Z,9
2022-08-29T04:39:42.215Z,9
2022-08-29T04:40:34.191Z,10
2022-08-29T04:41:25.794Z,10
2022-08-29T04:42:20.181Z,10
2022-08-29T04:43:09.396Z,9
2022-08-29T04:44:01.197Z,11
2022-08-29T04:44:53.002Z,10
2022-08-29T04:45:44.790Z,9
2022-08-29T04:46:36.728Z,10
2022-08-29T04:47:28.363Z,9
2022-08-29T04:48:20.179Z,10
2022-08-29T04:49:11.901Z,10
2022-08-29T04:50:03.689Z,8
2022-08-29T04:50:55.546Z,11
2022-08-29T04:51:47.350Z,10
2022-08-29T04:52:39.144Z,10
2022-08-29T04:53:30.947Z,9
2022-08-29T04:54:22.725Z,10
2022-08-29T04:55:19.470Z,10
2022-08-29T04:56:06.316Z,9
2022-08-29T04:56:58.108Z,11
2022-08-29T04:57:49.897Z,10
2022-08-29T04:58:41.632Z,11
2022-08-29T04:59:33.455Z,9
2022-08-29T05:00:25.313Z,11
2022-08-29T05:01:17.085Z,11
2022-08-29T05:02:08.873Z,11
2022-08-29T05:03:00.737Z,11
2022-08-29T05:03:52.484Z,10
2022-08-29T05:04:44.248Z,11
2022-08-29T05:05:36.040Z,9
2022-08-29T05:06:27.834Z,9
2022-08-29T05:07:19.636Z,11
2022-08-29T05:08:11.440Z,12
2022-08-29T05:09:03.215Z,11
2022-08-29T05:09:55.009Z,12
2022-08-29T05:10:46.800Z,11
2022-08-29T05:11:38.567Z,11
2022-08-29T05:12:30.376Z,11
2022-08-29T05:13:22.147Z,10
2022-08-29T05:14:13.903Z,10
2022-08-29T05:15:05.728Z,10
2022-08-29T05:15:57.629Z,11
2022-08-29T05:16:49.309Z,10
2022-08-29T05:17:41.128Z,9
2022-08-29T05:18:32.880Z,10
2022-08-29T05:19:24.713Z,12
2022-08-29T05:20:16.478Z,11
2022-08-29T05:21:08.273Z,10
2022-08-29T05:22:00.076Z,11
2022-08-29T05:22:51.849Z,10
2022-08-29T05:23:43.567Z,11
2022-08-29T05:24:35.423Z,11
2022-08-29T05:25:27.190Z,10
2022-08-29T05:26:19.021Z,11
2022-08-29T05:27:10.767Z,10
2022-08-29T05:28:02.585Z,10
2022-08-29T05:28:54.253Z,11
2022-08-29T05:29:46.158Z,11
2022-08-29T05:30:37.922Z,11
2022-08-29T05:31:29.829Z,10
2022-08-29T05:32:21.419Z,11
2022-08-29T05:33:13.296Z,10
2022-08-29T05:34:25.566Z,10
2022-08-29T05:34:56.885Z,11
2022-08-29T05:35:48.654Z,10
2022-08-29T05:36:40.451Z,10
2022-08-29T05:37:32.232Z,11
2022-08-29T05:38:23.950Z,11
2022-08-29T05:39:15.807Z,10
2022-08-29T05:40:07.665Z,10
2022-08-29T05:40:59.379Z,11
2022-08-29T05:41:51.195Z,11
2022-08-29T05:42:42.945Z,11
2022-08-29T05:43:34.740Z,10
2022-08-29T05:44:26.514Z,11
2022-08-29T05:45:18.322Z,10
2022-08-29T05:46:10.258Z,10
2022-08-29T05:47:01.908Z,10
2022-08-29T05:47:53.606Z,10
2022-08-29T05:48:45.468Z,10
2022-08-29T05:49:37.262Z,11
2022-08-29T05:50:29.056Z,11
2022-08-29T05:51:20.850Z,11
2022-08-29T05:52:12.637Z,10
2022-08-29T05:53:04.411Z,12
2022-08-29T05:53:56.215Z,10
2022-08-29T05:54:48.017Z,10
2022-08-29T05:55:39.788Z,11
2022-08-29T05:56:31.565Z,10
2022-08-29T05:57:23.369Z,10
2022-08-29T05:58:15.373Z,10
2022-08-29T05:59:06.961Z,11
2022-08-29T05:59:58.743Z,11
2022-08-29T06:00:50.535Z,10
2022-08-29T06:01:42.303Z,11
2022-08-29T06:02:34.173Z,11
2022-08-29T06:03:26.013Z,10
2022-08-29T06:04:17.717Z,11
2022-08-29T06:05:10.634Z,11
2022-08-29T06:06:01.294Z,10
2022-08-29T06:06:53.080Z,11
2022-08-29T06:07:44.884Z,12
2022-08-29T06:08:36.645Z,12
2022-08-29T06:09:28.462Z,13
2022-08-29T06:10:20.240Z,11
2022-08-29T06:11:12.046Z,10
2022-08-29T06:12:03.761Z,11
2022-08-29T06:12:55.619Z,10
2022-08-29T06:13:47.412Z,10
2022-08-29T06:14:39.220Z,10
2022-08-29T06:15:31.079Z,10
2022-08-29T06:16:22.833Z,10
2022-08-29T06:17:14.584Z,10
2022-08-29T06:18:06.399Z,11
2022-08-29T06:18:58.191Z,12
2022-08-29T06:19:49.997Z,10
2022-08-29T06:20:41.838Z,11
2022-08-29T06:21:33.577Z,10
2022-08-29T06:22:25.347Z,10
2022-08-29T06:23:17.083Z,10
2022-08-29T06:24:08.948Z,12
2022-08-29T06:25:00.745Z,11
2022-08-29T06:25:52.525Z,9
2022-08-29T06:26:44.278Z,11
2022-08-29T06:27:36.125Z,9
2022-08-29T06:28:27.947Z,10
2022-08-29T06:29:19.733Z,9
2022-08-29T06:30:11.520Z,10
2022-08-29T06:31:03.407Z,9
2022-08-29T06:31:55.135Z,9
2022-08-29T06:32:46.911Z,9
2022-08-29T06:33:38.737Z,9
2022-08-29T06:34:30.511Z,8
2022-08-29T06:35:22.355Z,8
2022-08-29T06:36:14.078Z,9
2022-08-29T06:37:05.951Z,10
2022-08-29T06:37:57.741Z,9
2022-08-29T06:38:49.546Z,9
2022-08-29T06:39:41.341Z,9
2022-08-29T06:40:33.215Z,9
2022-08-29T06:41:24.985Z,9
2022-08-29T06:42:16.784Z,9
2022-08-29T06:43:08.564Z,10
2022-08-29T06:44:00.366Z,10
2022-08-29T06:44:52.168Z,9
2022-08-29T06:45:43.905Z,9
2022-08-29T06:46:35.816Z,8
2022-08-29T06:47:27.601Z,10
2022-08-29T06:48:19.393Z,10
2022-08-29T06:49:11.201Z,11
2022-08-29T06:50:02.919Z,10
2022-08-29T06:50:54.796Z,10
2022-08-29T06:51:46.602Z,11
2022-08-29T06:52:38.418Z,11
2022-08-29T06:53:32.104Z,10
2022-08-29T06:54:22.009Z,10
2022-08-29T06:55:13.730Z,10
2022-08-29T06:56:05.611Z,11
2022-08-29T06:56:57.417Z,11
2022-08-29T06:57:49.211Z,10
2022-08-29T06:58:41.000Z,9
2022-08-29T06:59:32.815Z,9
2022-08-29T07:00:24.709Z,9
2022-08-29T07:01:16.501Z,10
2022-08-29T07:02:08.280Z,9
2022-08-29T07:03:00.107Z,9
2022-08-29T07:03:51.820Z,9
2022-08-29T07:04:43.663Z,9
2022-08-29T07:05:35.435Z,11
2022-08-29T07:06:27.259Z,9
2022-08-29T07:07:19.038Z,8
2022-08-29T07:08:10.878Z,11
2022-08-29T07:09:02.652Z,9
2022-08-29T07:09:54.420Z,10
2022-08-29T07:10:46.287Z,10
2022-08-29T07:11:41.091Z,10
2022-08-29T07:12:29.892Z,9
2022-08-29T07:13:21.729Z,9
2022-08-29T07:14:13.510Z,10
2022-08-29T07:15:05.327Z,10
2022-08-29T07:15:57.217Z,10
2022-08-29T07:16:48.958Z,9
2022-08-29T07:17:40.728Z,9
2022-08-29T07:18:32.563Z,10
2022-08-29T07:19:24.273Z,9
2022-08-29T07:20:16.177Z,9
2022-08-29T07:21:07.966Z,9
2022-08-29T07:21:59.796Z,9
2022-08-29T07:22:51.578Z,9
2022-08-29T07:23:43.423Z,10
2022-08-29T07:24:35.212Z,9
2022-08-29T07:25:27.054Z,9
2022-08-29T07:26:18.828Z,10
2022-08-29T07:27:10.678Z,10
2022-08-29T07:28:02.459Z,9
2022-08-29T07:28:54.212Z,9
2022-08-29T07:29:48.841Z,10
2022-08-29T07:30:38.035Z,10
2022-08-29T07:31:31.015Z,10
2022-08-29T07:32:25.652Z,9
2022-08-29T07:33:13.490Z,9
2022-08-29T07:34:05.134Z,9
2022-08-29T07:34:56.968Z,8
2022-08-29T07:35:48.827Z,10
2022-08-29T07:36:40.624Z,10
2022-08-29T07:37:32.446Z,11
2022-08-29T07:38:24.120Z,10
2022-08-29T07:39:16.060Z,10
2022-08-29T07:40:07.931Z,10
2022-08-29T07:40:59.680Z,9
2022-08-29T07:41:51.481Z,9
2022-08-29T07:42:43.278Z,8
2022-08-29T07:43:35.098Z,9
2022-08-29T07:44:26.903Z,9
2022-08-29T07:45:18.735Z,9
2022-08-29T07:46:10.629Z,9
2022-08-29T07:47:02.360Z,8
2022-08-29T07:47:54.119Z,9
2022-08-29T07:48:45.969Z,9
2022-08-29T07:49:41.598Z,9
2022-08-29T07:50:29.602Z,9
2022-08-29T07:51:21.428Z,9
2022-08-29T07:52:13.241Z,8
2022-08-29T07:53:05.051Z,10
2022-08-29T07:53:56.871Z,10
2022-08-29T07:54:48.683Z,9
2022-08-29T07:55:40.529Z,8
2022-08-29T07:56:37.043Z,9
2022-08-29T07:57:24.042Z,9
2022-08-29T07:58:16.232Z,8
2022-08-29T07:59:07.770Z,9
2022-08-29T07:59:59.583Z,9
2022-08-29T08:00:51.386Z,8
2022-08-29T08:01:43.279Z,9
2022-08-29T08:02:35.036Z,9
2022-08-29T08:03:26.852Z,9
2022-08-29T08:04:19.166Z,10
2022-08-29T08:05:10.476Z,10
2022-08-29T08:06:03.939Z,10
2022-08-29T08:06:54.109Z,10
2022-08-29T08:07:45.893Z,10
2022-08-29T08:08:37.758Z,9
2022-08-29T08:09:29.522Z,9
2022-08-29T08:10:21.373Z,9
2022-08-29T08:11:13.156Z,11
2022-08-29T08:12:08.158Z,9
2022-08-29T08:12:56.788Z,9
2022-08-29T08:13:48.651Z,10
2022-08-29T08:14:40.424Z,9
2022-08-29T08:15:32.264Z,11
2022-08-29T08:16:24.028Z,9
2022-08-29T08:17:15.877Z,9
2022-08-29T08:18:07.707Z,8
2022-08-29T08:18:59.521Z,9
2022-08-29T08:19:51.312Z,9
2022-08-29T08:20:43.136Z,9
2022-08-29T08:21:34.932Z,9
2022-08-29T08:22:26.793Z,9
2022-08-29T08:23:18.973Z,9
2022-08-29T08:24:10.424Z,10
2022-08-29T08:25:02.243Z,10
2022-08-29T08:25:54.007Z,11
2022-08-29T08:26:45.843Z,10
2022-08-29T08:27:41.259Z,11
2022-08-29T08:28:29.475Z,9
2022-08-29T08:29:21.314Z,8
2022-08-29T08:30:13.099Z,10
2022-08-29T08:31:06.464Z,9
2022-08-29T08:31:56.743Z,9
2022-08-29T08:32:52.745Z,9
2022-08-29T08:33:40.389Z,9
2022-08-29T08:34:35.701Z,12
2022-08-29T08:35:23.906Z,10
2022-08-29T08:36:15.817Z,10
2022-08-29T08:37:07.630Z,10
2022-08-29T08:37:59.455Z,11
2022-08-29T08:38:51.247Z,10
2022-08-29T08:39:43.081Z,10
2022-08-29T08:40:34.933Z,9
2022-08-29T08:41:27.407Z,9
2022-08-29T08:42:21.778Z,9
2022-08-29T08:43:10.345Z,10
2022-08-29T08:44:02.182Z,11
2022-08-29T08:44:53.890Z,9
2022-08-29T08:45:45.839Z,9
2022-08-29T08:46:37.634Z,9
2022-08-29T08:47:29.444Z,9
2022-08-29T08:48:21.260Z,9
2022-08-29T08:49:13.085Z,9
2022-08-29T08:50:04.905Z,9
2022-08-29T08:50:56.717Z,9
2022-08-29T08:51:48.528Z,10
2022-08-29T08:52:40.358Z,9
2022-08-29T08:53:32.191Z,10
2022-08-29T08:54:23.936Z,8
2022-08-29T08:55:15.822Z,8
2022-08-29T08:56:07.684Z,9
2022-08-29T08:57:02.137Z,10
2022-08-29T08:57:51.288Z,10
2022-08-29T08:58:43.123Z,10
2022-08-29T08:59:34.922Z,13
2022-08-29T09:00:26.755Z,11
2022-08-29T09:01:18.674Z,11
2022-08-29T09:02:10.477Z,10
2022-08-29T09:03:02.212Z,10
2022-08-29T09:03:53.977Z,10
2022-08-29T09:04:45.865Z,9
2022-08-29T09:05:37.718Z,11
2022-08-29T09:06:29.523Z,10
2022-08-29T09:07:21.386Z,11
2022-08-29T09:08:13.172Z,10
2022-08-29T09:09:05.036Z,9
2022-08-29T09:09:56.842Z,10
2022-08-29T09:10:48.702Z,10
2022-08-29T09:11:40.492Z,10
2022-08-29T09:12:32.353Z,9
2022-08-29T09:13:24.115Z,9
2022-08-29T09:14:16.021Z,9
2022-08-29T09:15:07.833Z,9
2022-08-29T09:15:59.681Z,10
2022-08-29T09:16:51.510Z,9
2022-08-29T09:17:43.344Z,9
2022-08-29T09:18:35.407Z,11
2022-08-29T09:19:27.010Z,10
2022-08-29T09:20:18.993Z,11
2022-08-29T09:21:37.090Z,9
2022-08-29T09:22:02.502Z,9
2022-08-29T09:22:54.290Z,10
2022-08-29T09:23:46.185Z,10
2022-08-29T09:24:38.013Z,10
2022-08-29T09:25:29.831Z,11
2022-08-29T09:26:21.732Z,11
2022-08-29T09:27:13.513Z,10
2022-08-29T09:28:05.375Z,10
2022-08-29T09:28:57.187Z,10
2022-08-29T09:29:49.044Z,10
2022-08-29T09:30:40.910Z,9
2022-08-29T09:31:32.788Z,9
2022-08-29T09:32:24.624Z,10
2022-08-29T09:33:16.592Z,8
2022-08-29T09:34:08.220Z,9
2022-08-29T09:35:09.492Z,10
2022-08-29T09:35:51.938Z,10
2022-08-29T09:36:47.816Z,9
2022-08-29T09:37:35.590Z,8
2022-08-29T09:38:27.432Z,9
2022-08-29T09:39:19.260Z,10
2022-08-29T09:40:11.344Z,11
2022-08-29T09:41:02.927Z,10
2022-08-29T09:41:54.715Z,9
2022-08-29T09:42:46.629Z,10
2022-08-29T09:43:38.467Z,9
2022-08-29T09:44:30.304Z,9
2022-08-29T09:45:22.151Z,9
2022-08-29T09:46:14.093Z,11
2022-08-29T09:47:05.852Z,10
2022-08-29T09:47:57.686Z,9
2022-08-29T09:48:49.521Z,10
2022-08-29T09:49:41.374Z,10
2022-08-29T09:50:33.233Z,9
2022-08-29T09:51:25.053Z,10
2022-08-29T09:52:16.889Z,11
2022-08-29T09:53:11.693Z,13
2022-08-29T09:54:00.594Z,10
2022-08-29T09:54:52.427Z,10
2022-08-29T09:55:45.237Z,9
2022-08-29T09:56:36.109Z,9
2022-08-29T09:57:27.963Z,9
2022-08-29T09:58:19.958Z,9
2022-08-29T09:59:11.656Z,9
2022-08-29T10:00:03.426Z,9
2022-08-29T10:00:55.412Z,11
2022-08-29T10:01:47.307Z,11
2022-08-29T10:02:39.109Z,9
2022-08-29T10:03:30.863Z,11
2022-08-29T10:04:22.749Z,10
2022-08-29T10:05:14.471Z,12
2022-08-29T10:06:06.435Z,10
2022-08-29T10:06:58.263Z,10
2022-08-29T10:07:50.129Z,10
2022-08-29T10:08:41.939Z,11
2022-08-29T10:09:33.827Z,10
2022-08-29T10:10:25.629Z,11
2022-08-29T10:11:17.440Z,10
2022-08-29T10:12:09.333Z,10
2022-08-29T10:13:01.196Z,10
2022-08-29T10:13:53.014Z,10
2022-08-29T10:14:50.012Z,9
2022-08-29T10:15:49.340Z,10
2022-08-29T10:16:28.683Z,9
2022-08-29T10:17:20.409Z,8
2022-08-29T10:18:12.260Z,10
2022-08-29T10:19:04.004Z,11
2022-08-29T10:19:55.949Z,10
2022-08-29T10:20:47.825Z,9
2022-08-29T10:21:39.663Z,9
2022-08-29T10:22:31.486Z,8
2022-08-29T10:23:23.346Z,9
2022-08-29T10:24:17.325Z,10
2022-08-29T10:25:07.041Z,9
2022-08-29T10:25:58.862Z,9
2022-08-29T10:26:50.719Z,9
2022-08-29T10:27:42.556Z,8
2022-08-29T10:28:34.334Z,9
2022-08-29T10:29:29.638Z,9
2022-08-29T10:30:18.122Z,10
2022-08-29T10:31:09.947Z,9
2022-08-29T10:32:01.896Z,9
2022-08-29T10:32:53.645Z,9
2022-08-29T10:33:45.518Z,9
2022-08-29T10:34:37.341Z,8
2022-08-29T10:35:29.212Z,9
2022-08-29T10:36:21.036Z,10
2022-08-29T10:37:12.887Z,11
2022-08-29T10:38:04.657Z,9
2022-08-29T10:38:56.583Z,10
2022-08-29T10:39:48.414Z,10
2022-08-29T10:40:43.171Z,10
2022-08-29T10:41:32.108Z,9
2022-08-29T10:42:23.988Z,9
2022-08-29T10:43:16.049Z,9
2022-08-29T10:44:07.748Z,9
2022-08-29T10:44:59.515Z,9
2022-08-29T10:45:51.479Z,9
2022-08-29T10:46:43.213Z,9
2022-08-29T10:47:35.065Z,9
2022-08-29T10:48:26.920Z,9
2022-08-29T10:49:18.776Z,9
2022-08-29T10:50:17.185Z,9
2022-08-29T10:51:02.465Z,9
2022-08-29T10:51:54.241Z,10
2022-08-29T10:52:46.155Z,9
2022-08-29T10:53:38.015Z,9
2022-08-29T10:54:29.868Z,9
2022-08-29T10:55:21.715Z,9
2022-08-29T10:56:13.569Z,9
2022-08-29T10:57:05.412Z,8
2022-08-29T10:57:57.257Z,9
2022-08-29T10:58:49.116Z,10
2022-08-29T10:59:40.974Z,9
2022-08-29T11:00:32.797Z,10
2022-08-29T11:01:24.714Z,9
2022-08-29T11:02:16.546Z,10
2022-08-29T11:03:08.377Z,9
2022-08-29T11:04:00.275Z,9
2022-08-29T11:04:52.082Z,9
2022-08-29T11:05:43.934Z,9
2022-08-29T11:07:27.619Z,8
2022-08-29T11:08:19.683Z,10
2022-08-29T11:09:11.342Z,8
2022-08-29T11:10:03.113Z,9
2022-08-29T11:10:55.039Z,9
2022-08-29T11:11:46.895Z,8
2022-08-29T11:12:38.742Z,9
2022-08-29T11:13:30.610Z,8
2022-08-29T11:14:22.435Z,9
2022-08-29T11:15:14.231Z,9
2022-08-29T11:16:06.216Z,9
2022-08-29T11:16:58.012Z,9
2022-08-29T11:17:49.838Z,9
2022-08-29T11:18:41.704Z,10
2022-08-29T11:19:33.542Z,10
2022-08-29T11:20:25.420Z,11
2022-08-29T11:21:17.278Z,10
2022-08-29T11:22:09.108Z,9
2022-08-29T11:23:00.950Z,10
2022-08-29T11:23:52.817Z,10
2022-08-29T11:24:47.216Z,9
2022-08-29T11:25:36.514Z,9
2022-08-29T11:26:28.345Z,9
2022-08-29T11:27:20.222Z,7
2022-08-29T11:28:12.032Z,9
2022-08-29T11:29:03.915Z,9
2022-08-29T11:29:55.740Z,9
2022-08-29T11:30:48.236Z,8
2022-08-29T11:31:39.503Z,9
2022-08-29T11:32:31.320Z,9
2022-08-29T11:33:23.162Z,8
2022-08-29T11:34:14.995Z,8
2022-08-29T11:35:06.858Z,10
2022-08-29T11:36:03.784Z,9
2022-08-29T11:36:50.565Z,9
2022-08-29T11:37:42.427Z,9
2022-08-29T11:38:34.164Z,9
2022-08-29T11:39:26.130Z,8
2022-08-29T11:40:18.159Z,9
2022-08-29T11:41:29.876Z,9
2022-08-29T11:42:01.747Z,9
2022-08-29T11:42:53.659Z,9
2022-08-29T11:43:45.387Z,9
2022-08-29T11:44:37.236Z,9
2022-08-29T11:45:37.586Z,10
2022-08-29T11:46:20.980Z,10
2022-08-29T11:47:12.832Z,9
2022-08-29T11:48:04.570Z,8
2022-08-29T11:48:59.707Z,9
2022-08-29T11:49:48.345Z,9
2022-08-29T11:50:40.219Z,9
2022-08-29T11:51:32.061Z,9
2022-08-29T11:52:23.904Z,9
2022-08-29T11:53:16.732Z,9
2022-08-29T11:54:07.617Z,11
2022-08-29T11:54:59.475Z,11
2022-08-29T11:55:51.318Z,9
2022-08-29T11:56:43.200Z,8
2022-08-29T11:57:35.035Z,9
2022-08-29T11:58:26.899Z,8
2022-08-29T11:59:18.742Z,9
2022-08-29T12:00:10.610Z,9
2022-08-29T12:01:02.449Z,8
2022-08-29T12:01:54.295Z,9
2022-08-29T12:02:48.819Z,8
2022-08-29T12:03:38.088Z,8
2022-08-29T12:04:29.931Z,9
2022-08-29T12:05:21.721Z,8
2022-08-29T12:06:13.562Z,9
2022-08-29T12:07:05.438Z,10
2022-08-29T12:07:58.498Z,10
2022-08-29T12:08:49.149Z,9
2022-08-29T12:09:40.978Z,9
2022-08-29T12:10:32.849Z,9
2022-08-29T12:11:24.656Z,11
2022-08-29T12:12:16.576Z,9
2022-08-29T12:13:08.477Z,9
2022-08-29T12:14:00.282Z,8
2022-08-29T12:14:52.701Z,9
2022-08-29T12:15:43.989Z,11
2022-08-29T12:16:35.861Z,8
2022-08-29T12:17:44.905Z,9
2022-08-29T12:18:19.528Z,9
2022-08-29T12:19:11.405Z,7
2022-08-29T12:20:03.250Z,8
2022-08-29T12:20:55.049Z,10
2022-08-29T12:21:46.960Z,9
2022-08-29T12:22:38.882Z,10
2022-08-29T12:23:30.673Z,9
2022-08-29T12:24:22.528Z,9
2022-08-29T12:25:14.292Z,10
2022-08-29T12:26:22.759Z,10
2022-08-29T12:26:58.074Z,9
2022-08-29T12:27:49.946Z,10
2022-08-29T12:28:41.782Z,10
2022-08-29T12:29:43.657Z,10
2022-08-29T12:30:25.494Z,9
2022-08-29T12:31:17.414Z,8
2022-08-29T12:32:22.314Z,10
2022-08-29T12:33:01.110Z,9
2022-08-29T12:33:52.922Z,10
2022-08-29T12:34:44.755Z,10
2022-08-29T12:35:36.651Z,9
2022-08-29T12:36:28.529Z,9